createdAt,value
2018-04-01T00:00:02.271Z,73.52
2018-04-01T00:02:28.348Z,73.72
2018-04-01T00:04:54.465Z,73.77
2018-04-01T00:07:20.560Z,74.04
2018-04-01T00:09:46.584Z,74.12
2018-04-01T00:12:12.725Z,74.21
2018-04-01T00:14:38.777Z,74.27
2018-04-01T00:17:04.793Z,74.34
2018-04-01T00:19:30.812Z,74.52
2018-04-01T00:21:56.943Z,74.58
2018-04-01T00:24:22.929Z,74.61
2018-04-01T00:26:49.270Z,74.76
2018-04-01T00:29:15.296Z,74.59
2018-04-01T00:31:41.339Z,74.79
2018-04-01T00:34:07.565Z,74.77
2018-04-01T00:36:33.580Z,74.75
2018-04-01T00:38:59.642Z,74.51
2018-04-01T00:41:25.773Z,74.78
2018-04-01T00:43:51.799Z,74.96
2018-04-01T00:46:17.880Z,74.94
2018-04-01T00:48:43.967Z,75.01
2018-04-01T00:51:10.093Z,74.92
2018-04-01T00:53:36.107Z,75.03
2018-04-01T00:56:02.140Z,74.85
2018-04-01T00:58:28.168Z,75.12
2018-04-01T01:00:54.281Z,75.39
2018-04-01T01:03:20.293Z,75.49
2018-04-01T01:05:46.296Z,75.55
2018-04-01T01:08:12.353Z,75.62
2018-04-01T01:10:38.366Z,75.92
2018-04-01T01:13:04.387Z,76.15
2018-04-01T01:15:30.525Z,75.80
2018-04-01T01:17:56.684Z,75.48
2018-04-01T01:20:22.911Z,75.71
2018-04-01T01:22:48.915Z,76.01
2018-04-01T01:25:14.984Z,75.56
2018-04-01T01:27:41.004Z,75.55
2018-04-01T01:30:07.081Z,76.16
2018-04-01T01:32:33.142Z,76.10
2018-04-01T01:34:59.162Z,75.70
2018-04-01T01:37:25.205Z,74.40
2018-04-01T01:39:51.539Z,74.79
2018-04-01T01:42:17.661Z,74.32
2018-04-01T01:44:43.736Z,74.02
2018-04-01T01:47:10.108Z,73.67
2018-04-01T01:49:36.145Z,73.85
2018-04-01T01:52:02.252Z,72.71
2018-04-01T01:54:28.329Z,72.11
2018-04-01T01:56:54.484Z,72.74
2018-04-01T01:59:20.555Z,72.02
2018-04-01T02:01:46.575Z,71.40
2018-04-01T02:04:12.666Z,68.83
2018-04-01T02:06:38.776Z,67.85
2018-04-01T02:09:05.007Z,67.84
2018-04-01T02:11:31.101Z,59.83
2018-04-01T02:13:57.278Z,59.48
2018-04-01T02:16:23.367Z,59.52
2018-04-01T02:18:49.420Z,63.94
2018-04-01T02:21:15.490Z,54.06
2018-04-01T02:23:41.549Z,51.99
2018-04-01T02:26:07.720Z,53.40
2018-04-01T02:28:33.834Z,51.17
2018-04-01T02:30:59.840Z,53.64
2018-04-01T02:33:25.963Z,56.45
2018-04-01T02:35:51.973Z,56.18
2018-04-01T02:38:17.993Z,50.70
2018-04-01T02:40:44.028Z,51.11
2018-04-01T02:43:10.151Z,52.74
2018-04-01T02:45:36.214Z,50.81
2018-04-01T02:48:02.493Z,50.62
2018-04-01T02:50:28.534Z,48.76
2018-04-01T02:52:54.651Z,49.09
2018-04-01T02:55:20.673Z,48.21
2018-04-01T02:57:46.694Z,48.21
2018-04-01T03:00:12.841Z,48.08
2018-04-01T03:02:38.940Z,48.51
2018-04-01T03:05:04.962Z,47.69
2018-04-01T03:07:31.024Z,48.82
2018-04-01T03:09:57.033Z,49.32
2018-04-01T03:12:23.095Z,48.72
2018-04-01T03:14:49.269Z,49.52
2018-04-01T03:17:15.402Z,48.96
2018-04-01T03:19:41.429Z,48.20
2018-04-01T03:22:07.523Z,48.38
2018-04-01T03:24:33.547Z,48.04
2018-04-01T03:26:59.559Z,48.22
2018-04-01T03:29:25.635Z,48.53
2018-04-01T03:31:51.661Z,48.89
2018-04-01T03:34:17.671Z,49.86
2018-04-01T03:36:43.766Z,49.46
2018-04-01T03:39:09.883Z,51.48
2018-04-01T03:41:35.933Z,51.47
2018-04-01T03:44:01.944Z,52.51
2018-04-01T03:46:28.252Z,54.24
2018-04-01T03:48:54.329Z,53.64
2018-04-01T03:51:20.396Z,55.60
2018-04-01T03:53:46.430Z,55.71
2018-04-01T03:56:12.452Z,56.83
2018-04-01T03:58:38.594Z,56.79
2018-04-01T04:01:04.717Z,58.33
2018-04-01T04:03:30.781Z,59.11
2018-04-01T04:05:56.946Z,59.53
2018-04-01T04:08:22.965Z,60.87
2018-04-01T04:10:49.211Z,61.28
2018-04-01T04:13:15.303Z,60.78
2018-04-01T04:15:41.316Z,62.04
2018-04-01T04:18:07.445Z,62.66
2018-04-01T04:20:33.596Z,63.29
2018-04-01T04:22:59.712Z,63.88
2018-04-01T04:25:25.837Z,64.99
2018-04-01T04:27:51.893Z,65.61
2018-04-01T04:30:17.973Z,66.50
2018-04-01T04:32:44.041Z,67.16
2018-04-01T04:35:10.077Z,67.10
2018-04-01T04:37:36.148Z,66.34
2018-04-01T04:40:02.201Z,66.13
2018-04-01T04:42:28.298Z,65.47
2018-04-01T04:44:54.436Z,66.29
2018-04-01T04:47:20.472Z,66.48
2018-04-01T04:49:46.805Z,66.94
2018-04-01T04:52:12.867Z,66.39
2018-04-01T04:54:38.932Z,65.98
2018-04-01T04:57:05.013Z,66.55
2018-04-01T04:59:31.025Z,67.07
2018-04-01T05:01:57.051Z,66.74
2018-04-01T05:04:23.149Z,66.94
2018-04-01T05:06:49.213Z,64.50
2018-04-01T05:09:15.312Z,66.34
2018-04-01T05:11:41.464Z,62.64
2018-04-01T05:14:07.510Z,64.82
2018-04-01T05:16:33.582Z,67.02
2018-04-01T05:19:03.061Z,69.26
2018-04-01T05:21:29.177Z,70.24
2018-04-01T05:23:55.372Z,73.30
2018-04-01T05:26:21.517Z,74.20
2018-04-01T05:28:47.582Z,75.42
2018-04-01T05:31:13.606Z,74.76
2018-04-01T05:33:39.785Z,72.83
2018-04-01T05:36:05.834Z,75.69
2018-04-01T05:38:31.865Z,75.19
2018-04-01T05:40:58.018Z,76.52
2018-04-01T05:43:26.605Z,73.26
2018-04-01T05:45:52.694Z,75.33
2018-04-01T05:48:18.777Z,72.88
2018-04-01T05:50:44.866Z,72.31
2018-04-01T05:53:11.008Z,73.61
2018-04-01T05:55:37.070Z,74.31
2018-04-01T05:58:03.134Z,74.79
2018-04-01T06:00:32.217Z,75.33
2018-04-01T06:02:58.245Z,75.12
2018-04-01T06:05:24.269Z,74.50
2018-04-01T06:07:50.324Z,75.24
2018-04-01T06:10:16.348Z,72.63
2018-04-01T06:12:42.414Z,73.97
2018-04-01T06:15:08.756Z,71.84
2018-04-01T06:17:34.779Z,73.34
2018-04-01T06:20:00.879Z,73.71
2018-04-01T06:22:27.005Z,73.45
2018-04-01T06:24:53.021Z,73.24
2018-04-01T06:27:19.092Z,73.08
2018-04-01T06:29:45.124Z,73.34
2018-04-01T06:32:11.149Z,73.23
2018-04-01T06:34:37.341Z,74.25
2018-04-01T06:37:03.364Z,74.00
2018-04-01T06:39:29.420Z,74.42
2018-04-01T06:41:55.517Z,73.03
2018-04-01T06:44:21.544Z,74.30
2018-04-01T06:46:47.592Z,74.57
2018-04-01T06:49:13.617Z,73.29
2018-04-01T06:51:39.620Z,72.49
2018-04-01T06:54:05.973Z,73.75
2018-04-01T06:56:32.065Z,73.82
2018-04-01T06:58:58.093Z,73.75
2018-04-01T07:01:24.171Z,73.35
2018-04-01T07:03:50.209Z,74.71
2018-04-01T07:06:16.293Z,73.98
2018-04-01T07:08:42.387Z,72.71
2018-04-01T07:11:08.407Z,75.16
2018-04-01T07:13:37.069Z,72.60
2018-04-01T07:16:03.183Z,72.10
2018-04-01T07:18:29.242Z,68.66
2018-04-01T07:20:55.268Z,70.95
2018-04-01T07:23:21.393Z,71.10
2018-04-01T07:25:47.416Z,69.97
2018-04-01T07:28:13.443Z,73.29
2018-04-01T07:30:39.501Z,73.60
2018-04-01T07:33:05.518Z,71.84
2018-04-01T07:35:31.585Z,73.72
2018-04-01T07:37:57.656Z,74.01
2018-04-01T07:40:23.712Z,72.89
2018-04-01T07:42:49.740Z,71.43
2018-04-01T07:45:15.886Z,68.24
2018-04-01T07:47:42.089Z,66.31
2018-04-01T07:50:09.973Z,64.60
2018-04-01T07:52:36.007Z,58.56
2018-04-01T07:55:02.113Z,58.76
2018-04-01T07:57:28.298Z,54.67
2018-04-01T07:59:54.391Z,56.28
2018-04-01T08:02:36.419Z,49.95
2018-04-01T08:05:05.357Z,50.72
2018-04-01T08:07:32.237Z,51.30
2018-04-01T08:09:58.250Z,48.30
2018-04-01T08:12:24.569Z,47.39
2018-04-01T08:14:50.696Z,49.33
2018-04-01T08:17:16.714Z,48.38
2018-04-01T08:19:42.865Z,47.32
2018-04-01T08:22:08.926Z,47.41
2018-04-01T08:24:35.063Z,49.40
2018-04-01T08:27:01.304Z,42.46
2018-04-01T08:29:27.341Z,43.71
2018-04-01T08:31:53.363Z,41.23
2018-04-01T08:34:19.648Z,37.32
2018-04-01T08:36:45.678Z,36.00
2018-04-01T08:39:11.702Z,36.60
2018-04-01T08:41:37.839Z,35.46
2018-04-01T08:44:03.865Z,36.57
2018-04-01T08:46:29.920Z,37.64
2018-04-01T08:48:55.988Z,37.86
2018-04-01T08:51:22.011Z,36.94
2018-04-01T08:53:48.148Z,37.93
2018-04-01T08:56:14.164Z,37.04
2018-04-01T08:58:40.185Z,38.54
2018-04-01T09:01:06.241Z,38.10
2018-04-01T09:03:32.249Z,37.85
2018-04-01T09:05:58.271Z,39.13
2018-04-01T09:08:24.407Z,39.83
2018-04-01T09:10:50.461Z,36.79
2018-04-01T09:13:16.593Z,35.69
2018-04-01T09:15:42.781Z,37.75
2018-04-01T09:18:08.812Z,38.32
2018-04-01T09:20:34.938Z,35.23
2018-04-01T09:23:01.008Z,34.93
2018-04-01T09:25:27.046Z,37.23
2018-04-01T09:27:53.151Z,31.79
2018-04-01T09:30:19.228Z,32.64
2018-04-01T09:32:45.260Z,31.21
2018-04-01T09:35:11.385Z,34.45
2018-04-01T09:37:37.399Z,32.41
2018-04-01T09:40:03.501Z,31.14
2018-04-01T09:42:29.856Z,30.28
2018-04-01T09:44:55.886Z,31.00
2018-04-01T09:47:22.521Z,32.46
2018-04-01T09:49:48.694Z,32.74
2018-04-01T09:52:14.711Z,32.27
2018-04-01T09:54:43.912Z,33.62
2018-04-01T09:57:09.985Z,31.69
2018-04-01T09:59:36.064Z,32.07
2018-04-01T10:02:02.397Z,32.94
2018-04-01T10:04:28.945Z,29.82
2018-04-01T10:06:55.221Z,30.62
2018-04-01T10:09:21.506Z,31.09
2018-04-01T10:11:47.849Z,33.49
2018-04-01T10:14:14.108Z,32.63
2018-04-01T10:16:40.374Z,34.07
2018-04-01T10:19:06.689Z,32.98
2018-04-01T10:21:32.967Z,32.74
2018-04-01T10:23:59.300Z,32.32
2018-04-01T10:26:25.660Z,31.72
2018-04-01T10:28:52.037Z,33.10
2018-04-01T10:31:18.403Z,32.57
2018-04-01T10:33:44.663Z,36.55
2018-04-01T10:36:10.954Z,33.47
2018-04-01T10:38:37.322Z,33.68
2018-04-01T10:41:03.617Z,31.87
2018-04-01T10:43:32.459Z,32.65
2018-04-01T10:46:03.014Z,31.16
2018-04-01T10:48:29.345Z,32.52
2018-04-01T10:50:55.666Z,35.88
2018-04-01T10:53:22.144Z,35.92
2018-04-01T10:55:48.264Z,38.11
2018-04-01T10:58:14.335Z,38.57
2018-04-01T11:00:40.472Z,37.59
2018-04-01T11:03:06.553Z,36.57
2018-04-01T11:05:32.581Z,36.89
2018-04-01T11:07:58.704Z,35.34
2018-04-01T11:10:24.842Z,37.14
2018-04-01T11:12:51.010Z,39.70
2018-04-01T11:15:17.040Z,42.46
2018-04-01T11:17:43.132Z,41.28
2018-04-01T11:20:09.271Z,39.29
2018-04-01T11:22:35.382Z,38.75
2018-04-01T11:25:01.402Z,38.13
2018-04-01T11:27:27.502Z,36.09
2018-04-01T11:29:53.550Z,36.93
2018-04-01T11:32:21.515Z,35.96
2018-04-01T11:34:47.526Z,34.57
2018-04-01T11:37:13.554Z,33.84
2018-04-01T11:39:39.764Z,34.98
2018-04-01T11:42:07.554Z,33.78
2018-04-01T11:44:33.753Z,34.35
2018-04-01T11:46:59.778Z,35.75
2018-04-01T11:49:25.856Z,36.86
2018-04-01T11:51:52.073Z,36.62
2018-04-01T11:54:18.165Z,40.22
2018-04-01T11:56:44.278Z,39.46
2018-04-01T11:59:10.316Z,40.56
2018-04-01T12:01:36.368Z,40.00
2018-04-01T12:04:02.402Z,38.95
2018-04-01T12:06:28.565Z,38.88
2018-04-01T12:08:54.687Z,36.89
2018-04-01T12:11:20.773Z,32.85
2018-04-01T12:13:47.033Z,33.68
2018-04-01T12:16:13.388Z,35.46
2018-04-01T12:18:39.462Z,39.30
2018-04-01T12:21:05.490Z,38.38
2018-04-01T12:23:31.628Z,41.51
2018-04-01T12:25:57.820Z,40.40
2018-04-01T12:28:23.848Z,42.59
2018-04-01T12:30:49.875Z,44.83
2018-04-01T12:33:16.014Z,43.02
2018-04-01T12:35:42.080Z,43.15
2018-04-01T12:38:08.150Z,38.28
2018-04-01T12:40:34.220Z,40.78
2018-04-01T12:43:00.392Z,38.81
2018-04-01T12:45:26.424Z,39.17
2018-04-01T12:47:52.588Z,35.63
2018-04-01T12:50:18.862Z,34.36
2018-04-01T12:52:44.928Z,36.15
2018-04-01T12:55:10.973Z,34.15
2018-04-01T12:57:37.046Z,33.67
2018-04-01T13:00:03.425Z,33.69
2018-04-01T13:02:29.629Z,33.98
2018-04-01T13:04:55.704Z,33.10
2018-04-01T13:07:21.770Z,31.99
2018-04-01T13:09:47.961Z,31.20
2018-04-01T13:12:14.094Z,32.20
2018-04-01T13:14:40.160Z,36.13
2018-04-01T13:17:06.316Z,36.90
2018-04-01T13:19:32.443Z,39.75
2018-04-01T13:21:58.584Z,39.67
2018-04-01T13:24:24.608Z,40.70
2018-04-01T13:26:50.640Z,38.89
2018-04-01T13:29:16.783Z,40.26
2018-04-01T13:31:42.817Z,43.53
2018-04-01T13:34:08.854Z,44.99
2018-04-01T13:36:34.905Z,47.21
2018-04-01T13:39:01.104Z,52.71
2018-04-01T13:41:27.154Z,56.16
2018-04-01T13:43:53.335Z,55.69
2018-04-01T13:46:19.361Z,56.98
2018-04-01T13:48:45.384Z,57.51
2018-04-01T13:51:11.439Z,58.00
2018-04-01T13:53:37.458Z,57.26
2018-04-01T13:56:03.523Z,58.59
2018-04-01T13:58:29.599Z,60.52
2018-04-01T14:00:55.692Z,57.35
2018-04-01T14:03:21.836Z,63.13
2018-04-01T14:05:47.977Z,60.07
2018-04-01T14:08:14.129Z,61.25
2018-04-01T14:10:40.324Z,63.17
2018-04-01T14:13:06.368Z,58.26
2018-04-01T14:15:37.493Z,63.23
2018-04-01T14:18:04.952Z,61.71
2018-04-01T14:20:31.037Z,61.39
2018-04-01T14:22:57.094Z,58.66
2018-04-01T14:25:23.124Z,62.70
2018-04-01T14:27:49.296Z,62.72
2018-04-01T14:30:16.302Z,63.17
2018-04-01T14:32:42.332Z,60.91
2018-04-01T14:35:08.415Z,63.25
2018-04-01T14:37:34.485Z,61.90
2018-04-01T14:40:00.519Z,58.23
2018-04-01T14:42:26.604Z,54.51
2018-04-01T14:44:52.743Z,54.44
2018-04-01T14:47:18.768Z,56.99
2018-04-01T14:49:44.894Z,57.77
2018-04-01T14:52:10.917Z,58.46
2018-04-01T14:54:37.033Z,58.76
2018-04-01T14:57:03.050Z,60.93
2018-04-01T14:59:29.077Z,62.37
2018-04-01T15:01:55.185Z,62.92
2018-04-01T15:04:21.482Z,60.09
2018-04-01T15:06:47.619Z,64.05
2018-04-01T15:09:13.973Z,63.20
2018-04-01T15:11:40.089Z,60.31
2018-04-01T15:14:06.112Z,63.19
2018-04-01T15:16:32.172Z,64.71
2018-04-01T15:18:58.309Z,63.46
2018-04-01T15:21:24.330Z,63.90
2018-04-01T15:23:50.384Z,65.13
2018-04-01T15:26:16.409Z,64.22
2018-04-01T15:28:42.473Z,65.49
2018-04-01T15:31:08.674Z,62.70
2018-04-01T15:33:34.856Z,61.53
2018-04-01T15:36:00.900Z,62.80
2018-04-01T15:38:26.967Z,66.83
2018-04-01T15:40:53.013Z,67.48
2018-04-01T15:43:19.156Z,68.24
2018-04-01T15:45:45.220Z,66.57
2018-04-01T15:48:11.260Z,67.46
2018-04-01T15:50:37.302Z,68.64
2018-04-01T15:53:03.454Z,67.76
2018-04-01T15:55:29.530Z,65.74
2018-04-01T15:57:55.635Z,63.03
2018-04-01T16:00:21.705Z,69.09
2018-04-01T16:02:48.101Z,65.47
2018-04-01T16:05:14.121Z,62.46
2018-04-01T16:07:40.373Z,65.32
2018-04-01T16:10:06.402Z,71.53
2018-04-01T16:12:32.440Z,73.06
2018-04-01T16:14:58.638Z,72.65
2018-04-01T16:17:25.820Z,72.75
2018-04-01T16:19:51.853Z,73.06
2018-04-01T16:22:20.958Z,73.05
2018-04-01T16:24:46.991Z,71.62
2018-04-01T16:27:13.017Z,73.06
2018-04-01T16:29:39.096Z,74.15
2018-04-01T16:32:05.174Z,74.13
2018-04-01T16:34:31.209Z,73.42
2018-04-01T16:36:58.226Z,74.19
2018-04-01T16:39:24.453Z,74.09
2018-04-01T16:41:50.688Z,74.53
2018-04-01T16:44:16.968Z,74.62
2018-04-01T16:46:43.041Z,74.82
2018-04-01T16:49:09.061Z,74.91
2018-04-01T16:51:35.157Z,74.84
2018-04-01T16:54:01.295Z,74.66
2018-04-01T16:56:27.436Z,75.33
2018-04-01T16:58:53.453Z,76.56
2018-04-01T17:01:19.485Z,76.54
2018-04-01T17:03:45.539Z,75.10
2018-04-01T17:06:14.123Z,76.57
2018-04-01T17:08:40.361Z,75.88
2018-04-01T17:11:06.399Z,76.81
2018-04-01T17:13:32.517Z,77.90
2018-04-01T17:15:58.550Z,76.89
2018-04-01T17:18:24.850Z,69.75
2018-04-01T17:20:51.731Z,73.88
2018-04-01T17:23:17.798Z,72.13
2018-04-01T17:25:43.960Z,73.05
2018-04-01T17:28:10.094Z,73.04
2018-04-01T17:30:36.199Z,71.82
2018-04-01T17:33:02.365Z,71.68
2018-04-01T17:35:28.403Z,71.36
2018-04-01T17:37:54.425Z,70.10
2018-04-01T17:40:20.585Z,69.51
2018-04-01T17:42:46.612Z,71.04
2018-04-01T17:45:12.690Z,69.72
2018-04-01T17:47:39.057Z,71.29
2018-04-01T17:50:05.118Z,70.59
2018-04-01T17:52:31.136Z,72.43
2018-04-01T17:54:57.173Z,73.58
2018-04-01T17:59:49.575Z,74.84
2018-04-01T18:02:15.614Z,75.04
2018-04-01T18:04:41.662Z,73.41
2018-04-01T18:07:10.564Z,74.29
2018-04-01T18:09:36.609Z,73.00
2018-04-01T18:12:02.647Z,73.74
2018-04-01T18:14:28.831Z,74.10
2018-04-01T18:16:54.862Z,74.17
2018-04-01T18:19:21.072Z,72.27
2018-04-01T18:21:47.428Z,71.85
2018-04-01T18:24:13.843Z,73.39
2018-04-01T18:26:40.155Z,74.02
2018-04-01T18:29:06.292Z,74.56
2018-04-01T18:31:32.323Z,75.49
2018-04-01T18:33:58.349Z,75.86
2018-04-01T18:36:24.478Z,74.08
2018-04-01T18:38:50.507Z,73.52
2018-04-01T18:41:16.598Z,73.23
2018-04-01T18:43:42.657Z,70.85
2018-04-01T18:46:08.665Z,71.40
2018-04-01T18:48:34.677Z,71.16
2018-04-01T18:51:00.901Z,70.81
2018-04-01T18:53:26.932Z,71.84
2018-04-01T18:55:52.976Z,70.46
2018-04-01T18:58:19.209Z,69.50
2018-04-01T19:00:45.233Z,69.46
2018-04-01T19:03:11.318Z,69.74
2018-04-01T19:05:37.336Z,69.31
2018-04-01T19:08:03.364Z,68.20
2018-04-01T19:10:29.600Z,68.11
2018-04-01T19:12:55.759Z,67.97
2018-04-01T19:15:21.848Z,68.74
2018-04-01T19:17:48.322Z,68.94
2018-04-01T19:20:14.686Z,69.02
2018-04-01T19:22:40.957Z,70.02
2018-04-01T19:25:07.422Z,71.30
2018-04-01T19:27:33.704Z,72.41
2018-04-01T19:30:00.002Z,72.92
2018-04-01T19:32:26.328Z,72.54
2018-04-01T19:34:52.619Z,73.12
2018-04-01T19:37:18.898Z,70.76
2018-04-01T19:39:45.364Z,69.51
2018-04-01T19:42:11.633Z,69.22
2018-04-01T19:44:37.917Z,69.38
2018-04-01T19:47:04.312Z,68.43
2018-04-01T19:49:30.621Z,68.04
2018-04-01T19:51:56.912Z,66.81
2018-04-01T19:54:23.258Z,66.75
2018-04-01T19:56:49.519Z,65.70
2018-04-01T19:59:15.941Z,65.11
2018-04-01T20:01:42.335Z,64.86
2018-04-01T20:04:08.598Z,64.43
2018-04-01T20:06:34.884Z,63.77
2018-04-01T20:09:04.308Z,64.16
2018-04-01T20:11:30.705Z,64.21
2018-04-01T20:13:57.107Z,66.41
2018-04-01T20:16:23.381Z,69.25
2018-04-01T20:18:49.648Z,69.72
2018-04-01T20:21:15.969Z,70.14
2018-04-01T20:23:42.241Z,70.65
2018-04-01T20:26:08.536Z,69.71
2018-04-01T20:28:34.816Z,70.09
2018-04-01T20:31:01.076Z,67.85
2018-04-01T20:33:27.591Z,67.16
2018-04-01T20:35:53.868Z,67.80
2018-04-01T20:38:20.322Z,67.45
2018-04-01T20:40:46.601Z,67.39
2018-04-01T20:43:12.916Z,67.86
2018-04-01T20:45:39.322Z,67.89
2018-04-01T20:48:05.733Z,68.51
2018-04-01T20:50:32.000Z,68.00
2018-04-01T20:52:58.693Z,68.97
2018-04-01T20:55:24.975Z,68.46
2018-04-01T20:57:51.390Z,67.90
2018-04-01T21:00:17.659Z,68.11
2018-04-01T21:02:43.923Z,67.09
2018-04-01T21:05:10.245Z,67.26
2018-04-01T21:07:36.569Z,66.26
2018-04-01T21:10:02.868Z,66.11
2018-04-01T21:12:29.392Z,66.58
2018-04-01T21:14:55.679Z,66.54
2018-04-01T21:17:22.043Z,67.16
2018-04-01T21:19:48.308Z,66.63
2018-04-01T21:22:14.611Z,65.88
2018-04-01T21:24:40.952Z,66.03
2018-04-01T21:27:07.270Z,65.21
2018-04-01T21:29:33.532Z,65.54
2018-04-01T21:31:59.886Z,65.72
2018-04-01T21:34:26.471Z,64.55
2018-04-01T21:36:52.762Z,64.23
2018-04-01T21:39:19.081Z,63.63
2018-04-01T21:41:45.873Z,62.60
2018-04-01T21:44:12.174Z,62.04
2018-04-01T21:46:38.432Z,60.92
2018-04-01T21:49:04.713Z,60.52
2018-04-01T21:51:31.062Z,60.10
2018-04-01T21:53:58.236Z,59.20
2018-04-01T21:56:24.501Z,59.07
2018-04-01T21:58:50.854Z,58.40
2018-04-01T22:01:19.687Z,57.79
2018-04-01T22:03:46.128Z,57.33
2018-04-01T22:06:12.470Z,57.23
2018-04-01T22:08:39.139Z,57.13
2018-04-01T22:11:05.417Z,58.01
2018-04-01T22:13:31.740Z,57.60
2018-04-01T22:15:58.003Z,57.45
2018-04-01T22:18:24.485Z,57.01
2018-04-01T22:20:50.801Z,56.95
2018-04-01T22:23:17.115Z,57.99
2018-04-01T22:25:43.437Z,58.27
2018-04-01T22:28:09.777Z,59.82
2018-04-01T22:30:36.035Z,60.27
2018-04-01T22:33:02.308Z,60.07
2018-04-01T22:35:28.976Z,60.73
2018-04-01T22:37:56.476Z,61.57
2018-04-01T22:40:22.736Z,60.90
2018-04-01T22:42:49.014Z,60.18
2018-04-01T22:45:15.329Z,60.72
2018-04-01T22:47:41.657Z,61.22
2018-04-01T22:50:07.967Z,61.22
2018-04-01T22:52:34.525Z,61.03
2018-04-01T22:55:00.798Z,61.37
2018-04-01T22:57:27.060Z,61.43
2018-04-01T22:59:53.395Z,61.84
2018-04-01T23:02:19.904Z,61.58
2018-04-01T23:04:46.258Z,61.98
2018-04-01T23:07:12.644Z,62.16
2018-04-01T23:09:39.395Z,62.51
2018-04-01T23:12:05.752Z,62.17
2018-04-01T23:14:32.046Z,62.46
2018-04-01T23:16:58.305Z,62.95
2018-04-01T23:19:24.817Z,63.54
2018-04-01T23:21:50.892Z,63.88
2018-04-01T23:24:17.224Z,63.72
2018-04-01T23:26:43.542Z,63.28
2018-04-01T23:29:09.810Z,61.91
2018-04-01T23:31:36.085Z,62.37
2018-04-01T23:34:02.594Z,61.58
2018-04-01T23:36:28.976Z,61.83
2018-04-01T23:38:55.452Z,61.51
2018-04-01T23:41:21.728Z,62.04
2018-04-01T23:43:47.985Z,61.88
2018-04-01T23:46:14.279Z,61.64
2018-04-01T23:48:40.580Z,61.67
2018-04-01T23:51:06.853Z,61.42
2018-04-01T23:53:33.433Z,61.22
2018-04-01T23:55:59.701Z,60.81
2018-04-01T23:58:26.065Z,60.45
